Anxia, China

36°F / 2°C
Light Rain
Windchill: 30°F / -1°C
Humidity: 100%
Dew Point: 36°F / 2°C
Wind: NW at 7 mph / 11 km/h
Pressure: 30.12 in / 1020 hPa (Steady)
Visibility: 1.9 miles / 3.0 kilometers
Clouds: Mostly Cloudy (BKN) : 400 ft / 121 m
Overcast (OVC) : 5000 ft / 1524 m
Yesterday's Maximum: 39°F / 4°C
Yesterday's Minimum: 36°F / 2°C approx.
Yesterday's Heating Degree Days: 28 approx.
UV: 0 out of 16
Sunrise:6:59 AM CST
Sunset:6:16 PM CST
Moon Rise:4:46 PM CST
Moon Set:5:44 AM CST
Moon Phase Waxing Gibbous
NOAA Weather Radio
No local feed.
METAR ZGHA 172100Z 31003MPS 3000 -RA BR BKN004 OVC050 02/02 Q1020 RESHRA NOSIG
As of: 5:00 AM CST on February 18, 2019
Observed at: Huanghua, China

View Station's History

Local Satellite

Current Satellite Forecast
Region Default Local
No Yes

View Full Screen WunderMap

Forecast

Current Satellite Forecast
Sunday
. High: 39° F. / 3° C.

. High: 37° F. / 2° C.

Features

Weather Apps

WunderRadio

Weather Underground Apps
Check out our wide variety of mobile and setup applications.

Weather Underground Applications

Top of Page

© Copyright 2019
The Weather Company, LLC